createdAt,value
2022-11-01T00:00:18.636Z,14.21
2022-11-01T00:01:18.802Z,14.19
2022-11-01T00:02:19.142Z,14.22
2022-11-01T00:03:18.699Z,14.24
2022-11-01T00:04:18.713Z,14.23
2022-11-01T00:05:21.707Z,14.2
2022-11-01T00:06:18.757Z,14.21
2022-11-01T00:07:19.049Z,14.21
2022-11-01T00:08:18.722Z,14.21
2022-11-01T00:09:18.729Z,14.2
2022-11-01T00:10:18.664Z,14.17
2022-11-01T00:11:18.809Z,14.15
2022-11-01T00:12:19.052Z,14.15
2022-11-01T00:13:18.696Z,14.15
2022-11-01T00:14:19.202Z,14.13
2022-11-01T00:15:18.700Z,14.13
2022-11-01T00:16:18.619Z,14.11
2022-11-01T00:17:19.118Z,14.12
2022-11-01T00:18:18.830Z,14.13
2022-11-01T00:19:18.702Z,14.13
2022-11-01T00:20:18.739Z,14.14
2022-11-01T00:21:21.723Z,14.13
2022-11-01T00:22:19.022Z,14.15
2022-11-01T00:23:18.688Z,14.14
2022-11-01T00:24:18.739Z,14.14
2022-11-01T00:25:18.753Z,14.15
2022-11-01T00:26:18.634Z,14.14
2022-11-01T00:27:18.968Z,14.12
2022-11-01T00:28:18.767Z,14.13
2022-11-01T00:29:19.039Z,14.13
2022-11-01T00:30:18.714Z,14.11
2022-11-01T00:31:18.748Z,14.1
2022-11-01T00:32:24.724Z,14.11
2022-11-01T00:33:18.719Z,14.11
2022-11-01T00:34:18.744Z,14.11
2022-11-01T00:35:18.682Z,14.13
2022-11-01T00:36:18.719Z,14.11
2022-11-01T00:37:19.554Z,14.13
2022-11-01T00:38:18.709Z,14.11
2022-11-01T00:39:18.627Z,14.09
2022-11-01T00:40:18.739Z,14.05
2022-11-01T00:41:18.670Z,14.08
2022-11-01T00:42:19.042Z,14.1
2022-11-01T00:43:21.639Z,14.11
2022-11-01T00:44:18.983Z,14.12
2022-11-01T00:45:18.830Z,14.14
2022-11-01T00:46:18.816Z,14.15
2022-11-01T00:47:18.967Z,14.17
2022-11-01T00:48:18.813Z,14.18
2022-11-01T00:49:18.719Z,14.16
2022-11-01T00:50:18.702Z,14.16
2022-11-01T00:51:18.759Z,14.17
2022-11-01T00:52:18.966Z,14.14
2022-11-01T00:53:18.754Z,14.14
2022-11-01T00:54:21.722Z,14.17
2022-11-01T00:55:18.724Z,14.17
2022-11-01T00:56:18.606Z,14.16
2022-11-01T00:57:19.044Z,14.15
2022-11-01T00:58:18.727Z,14.17
2022-11-01T00:59:19.062Z,14.18
2022-11-01T01:00:18.596Z,14.19
2022-11-01T01:01:18.819Z,14.2
2022-11-01T01:02:19.172Z,14.2
2022-11-01T01:03:18.609Z,14.17
2022-11-01T01:04:18.718Z,14.18
2022-11-01T01:05:21.742Z,14.19
2022-11-01T01:06:18.678Z,14.18
2022-11-01T01:07:19.053Z,14.19
2022-11-01T01:08:18.831Z,14.18
2022-11-01T01:09:18.835Z,14.18
2022-11-01T01:10:18.664Z,14.16
2022-11-01T01:11:18.685Z,14.16
2022-11-01T01:12:19.063Z,14.15
2022-11-01T01:13:18.719Z,14.11
2022-11-01T01:14:19.055Z,14.12
2022-11-01T01:15:18.820Z,14.1
2022-11-01T01:16:21.703Z,14.11
2022-11-01T01:17:19.046Z,14.15
2022-11-01T01:18:18.829Z,14.13
2022-11-01T01:19:18.786Z,14.15
2022-11-01T01:20:18.595Z,14.13
2022-11-01T01:21:18.628Z,14.11
2022-11-01T01:22:18.981Z,14.12
2022-11-01T01:23:18.613Z,14.12
2022-11-01T01:24:18.748Z,14.12
2022-11-01T01:25:18.735Z,14.15
2022-11-01T01:26:18.699Z,14.15
2022-11-01T01:27:24.668Z,14.18
2022-11-01T01:28:18.792Z,14.18
2022-11-01T01:29:19.062Z,14.17
2022-11-01T01:30:18.825Z,14.14
2022-11-01T01:31:18.777Z,14.12
2022-11-01T01:32:19.043Z,14.11
2022-11-01T01:33:18.637Z,14.08
2022-11-01T01:34:18.688Z,14.07
2022-11-01T01:35:18.637Z,14.06
2022-11-01T01:36:18.631Z,14.08
2022-11-01T01:37:18.973Z,14.08
2022-11-01T01:38:21.716Z,14.06
2022-11-01T01:39:18.846Z,14.06
2022-11-01T01:40:18.616Z,14.06
2022-11-01T01:41:18.693Z,14.07
2022-11-01T01:42:19.045Z,14.1
2022-11-01T01:43:18.693Z,14.08
2022-11-01T01:44:18.989Z,14.06
2022-11-01T01:45:18.603Z,14.05
2022-11-01T01:46:18.716Z,14.01
2022-11-01T01:47:19.051Z,13.99
2022-11-01T01:48:18.801Z,13.97
2022-11-01T01:49:21.655Z,13.97
2022-11-01T01:50:18.787Z,13.97
2022-11-01T01:51:18.641Z,13.97
2022-11-01T01:52:19.073Z,13.98
2022-11-01T01:53:18.793Z,13.99
2022-11-01T01:54:18.723Z,14.01
2022-11-01T01:55:18.621Z,14.06
2022-11-01T01:56:18.685Z,14.05
2022-11-01T01:57:19.065Z,14.06
2022-11-01T01:58:18.606Z,14.11
2022-11-01T01:59:19.057Z,14.1
2022-11-01T02:00:21.665Z,14.24
2022-11-01T02:01:18.867Z,14.23
2022-11-01T02:02:19.122Z,14.2
2022-11-01T02:03:18.708Z,14.17
2022-11-01T02:04:18.623Z,14.16
2022-11-01T02:05:18.711Z,14.12
2022-11-01T02:06:18.657Z,14.12
2022-11-01T02:07:19.053Z,14.15
2022-11-01T02:08:18.697Z,14.16
2022-11-01T02:09:18.609Z,14.13
2022-11-01T02:10:18.782Z,14.05
2022-11-01T02:11:21.864Z,14.06
2022-11-01T02:12:18.975Z,14.03
2022-11-01T02:13:18.605Z,14.02
2022-11-01T02:14:19.047Z,14.06
2022-11-01T02:15:18.775Z,14.09
2022-11-01T02:16:18.776Z,14.1
2022-11-01T02:17:18.980Z,14.11
2022-11-01T02:18:18.597Z,14.13
2022-11-01T02:19:18.711Z,14.13
2022-11-01T02:20:18.639Z,14.11
2022-11-01T02:21:18.740Z,14.06
2022-11-01T02:22:24.705Z,14.11
2022-11-01T02:23:18.831Z,14.12
2022-11-01T02:24:18.724Z,14.14
2022-11-01T02:25:18.602Z,14.15
2022-11-01T02:26:18.615Z,14.15
2022-11-01T02:27:19.041Z,14.16
2022-11-01T02:28:18.709Z,14.13
2022-11-01T02:29:19.071Z,14.11
2022-11-01T02:30:18.682Z,14.16
2022-11-01T02:31:18.623Z,14.25
2022-11-01T02:32:19.045Z,14.31
2022-11-01T02:33:21.615Z,14.38
2022-11-01T02:34:18.681Z,14.39
2022-11-01T02:35:18.758Z,14.32
2022-11-01T02:36:18.829Z,14.3
2022-11-01T02:37:19.043Z,14.33
2022-11-01T02:38:18.753Z,14.33
2022-11-01T02:39:18.740Z,14.31
2022-11-01T02:40:18.622Z,14.31
2022-11-01T02:41:18.762Z,14.27
2022-11-01T02:42:18.976Z,14.29
2022-11-01T02:43:18.731Z,14.36
2022-11-01T02:44:22.025Z,14.27
2022-11-01T02:45:18.715Z,14.28
2022-11-01T02:46:18.718Z,14.26
2022-11-01T02:47:18.967Z,14.26
2022-11-01T02:48:18.803Z,14.21
2022-11-01T02:49:18.611Z,14.21
2022-11-01T02:50:18.623Z,14.23
2022-11-01T02:51:18.726Z,14.25
2022-11-01T02:52:18.972Z,14.21
2022-11-01T02:53:18.619Z,14.28
2022-11-01T02:54:18.721Z,14.29
2022-11-01T02:55:21.713Z,14.27
2022-11-01T02:56:18.718Z,14.29
2022-11-01T02:57:19.047Z,14.27
2022-11-01T02:58:18.776Z,14.28
2022-11-01T02:59:19.047Z,14.24
2022-11-01T03:00:18.814Z,14.25
2022-11-01T03:01:18.822Z,14.25
2022-11-01T03:02:19.168Z,14.24
2022-11-01T03:03:18.627Z,14.22
2022-11-01T03:04:18.739Z,14.22
2022-11-01T03:05:18.806Z,14.22
2022-11-01T03:06:21.617Z,14.24
2022-11-01T03:07:19.180Z,14.22
2022-11-01T03:08:18.794Z,14.21
2022-11-01T03:09:18.626Z,14.17
2022-11-01T03:10:18.781Z,14.16
2022-11-01T03:11:18.681Z,14.13
2022-11-01T03:12:19.074Z,14.15
2022-11-01T03:13:18.639Z,14.16
2022-11-01T03:14:19.083Z,14.16
2022-11-01T03:15:18.758Z,14.13
2022-11-01T03:16:18.609Z,14.12
2022-11-01T03:17:24.668Z,14.14
2022-11-01T03:18:18.804Z,14.16
2022-11-01T03:19:18.710Z,14.19
2022-11-01T03:20:18.618Z,14.21
2022-11-01T03:21:18.697Z,14.24
2022-11-01T03:22:19.059Z,14.3
2022-11-01T03:23:18.632Z,14.32
2022-11-01T03:24:18.636Z,14.35
2022-11-01T03:25:18.609Z,14.36
2022-11-01T03:26:18.621Z,14.36
2022-11-01T03:27:19.155Z,14.36
2022-11-01T03:28:21.638Z,14.36
2022-11-01T03:29:18.992Z,14.39
2022-11-01T03:30:18.787Z,14.42
2022-11-01T03:31:18.752Z,14.45
2022-11-01T03:32:19.079Z,14.49
2022-11-01T03:33:18.723Z,14.55
2022-11-01T03:34:18.719Z,14.57
2022-11-01T03:35:18.614Z,14.59
2022-11-01T03:36:18.616Z,14.63
2022-11-01T03:37:19.058Z,14.65
2022-11-01T03:38:18.810Z,14.66
2022-11-01T03:39:21.759Z,14.67
2022-11-01T03:40:18.682Z,14.66
2022-11-01T03:41:18.603Z,14.63
2022-11-01T03:42:18.976Z,14.62
2022-11-01T03:43:18.704Z,14.59
2022-11-01T03:44:19.047Z,14.57
2022-11-01T03:45:18.693Z,14.56
2022-11-01T03:46:18.707Z,14.55
2022-11-01T03:47:19.048Z,14.51
2022-11-01T03:48:18.806Z,14.49
2022-11-01T03:49:18.617Z,14.47
2022-11-01T03:50:21.734Z,14.46
2022-11-01T03:51:18.799Z,14.44
2022-11-01T03:52:19.216Z,14.45
2022-11-01T03:53:18.756Z,14.43
2022-11-01T03:54:18.762Z,14.42
2022-11-01T03:55:18.700Z,14.39
2022-11-01T03:56:18.733Z,14.37
2022-11-01T03:57:19.082Z,14.35
2022-11-01T03:58:18.800Z,14.33
2022-11-01T03:59:18.999Z,14.3
2022-11-01T04:00:18.753Z,14.27
2022-11-01T04:01:21.822Z,14.22
2022-11-01T04:02:20.305Z,14.23
2022-11-01T04:03:18.703Z,14.22
2022-11-01T04:04:18.724Z,14.18
2022-11-01T04:05:18.616Z,14.19
2022-11-01T04:06:18.605Z,14.19
2022-11-01T04:07:18.977Z,14.19
2022-11-01T04:08:18.622Z,14.33
2022-11-01T04:09:18.704Z,14.19
2022-11-01T04:10:18.750Z,14.19
2022-11-01T04:11:18.670Z,14.18
2022-11-01T04:12:24.703Z,14.15
2022-11-01T04:13:18.757Z,14.17
2022-11-01T04:14:18.972Z,14.12
2022-11-01T04:15:18.776Z,14.12
2022-11-01T04:16:18.728Z,14.16
2022-11-01T04:17:19.050Z,14.17
2022-11-01T04:18:18.703Z,14.22
2022-11-01T04:19:18.623Z,14.17
2022-11-01T04:20:18.699Z,14.16
2022-11-01T04:21:18.790Z,14.17
2022-11-01T04:22:22.045Z,14.2
2022-11-01T04:23:21.604Z,14.15
2022-11-01T04:24:18.727Z,14.15
2022-11-01T04:25:18.729Z,14.12
2022-11-01T04:26:18.699Z,14.09
2022-11-01T04:27:19.026Z,14.09
2022-11-01T04:28:18.825Z,14.1
2022-11-01T04:29:18.982Z,14.12
2022-11-01T04:30:18.658Z,14.12
2022-11-01T04:31:18.754Z,14.15
2022-11-01T04:32:18.971Z,14.17
2022-11-01T04:33:18.696Z,14.17
2022-11-01T04:34:21.681Z,14.17
2022-11-01T04:35:18.683Z,14.19
2022-11-01T04:36:18.614Z,14.19
2022-11-01T04:37:19.057Z,14.23
2022-11-01T04:38:18.748Z,14.23
2022-11-01T04:39:18.630Z,14.39
2022-11-01T04:40:18.605Z,14.34
2022-11-01T04:41:18.710Z,14.32
2022-11-01T04:42:19.051Z,14.36
2022-11-01T04:43:18.727Z,14.39
2022-11-01T04:44:19.066Z,14.34
2022-11-01T04:45:21.795Z,14.38
2022-11-01T04:46:18.698Z,14.35
2022-11-01T04:47:19.101Z,14.37
2022-11-01T04:48:18.829Z,14.37
2022-11-01T04:49:18.701Z,14.36
2022-11-01T04:50:18.711Z,14.39
2022-11-01T04:51:18.721Z,14.41
2022-11-01T04:52:18.970Z,14.42
2022-11-01T04:53:18.622Z,14.46
2022-11-01T04:54:18.720Z,14.44
2022-11-01T04:55:18.715Z,14.42
2022-11-01T04:56:21.685Z,14.42
2022-11-01T04:57:19.019Z,14.45
2022-11-01T04:58:18.827Z,14.48
2022-11-01T04:59:19.024Z,14.5
2022-11-01T05:00:18.784Z,14.53
2022-11-01T05:01:19.034Z,14.57
2022-11-01T05:02:19.161Z,14.6
2022-11-01T05:03:18.627Z,14.62
2022-11-01T05:04:18.772Z,14.63
2022-11-01T05:05:18.695Z,14.65
2022-11-01T05:06:18.623Z,14.65
2022-11-01T05:07:24.684Z,14.66
2022-11-01T05:08:18.745Z,14.68
2022-11-01T05:09:18.631Z,14.68
2022-11-01T05:10:18.745Z,14.67
2022-11-01T05:11:18.719Z,14.73
2022-11-01T05:12:19.094Z,14.74
2022-11-01T05:13:18.717Z,14.74
2022-11-01T05:14:18.715Z,14.77
2022-11-01T05:15:18.723Z,14.77
2022-11-01T05:16:20.136Z,14.78
2022-11-01T05:17:19.102Z,14.77
2022-11-01T05:18:21.742Z,14.75
2022-11-01T05:19:18.708Z,14.75
2022-11-01T05:20:18.630Z,14.81
2022-11-01T05:21:18.717Z,14.83
2022-11-01T05:22:18.720Z,14.8
2022-11-01T05:23:18.735Z,14.79
2022-11-01T05:24:18.711Z,14.8
2022-11-01T05:25:18.620Z,14.77
2022-11-01T05:26:18.627Z,14.77
2022-11-01T05:27:18.635Z,14.78
2022-11-01T05:28:18.622Z,14.79
2022-11-01T05:29:32.664Z,14.8
2022-11-01T05:30:18.700Z,14.82
2022-11-01T05:31:18.600Z,14.86
2022-11-01T05:32:19.059Z,14.88
2022-11-01T05:33:18.703Z,14.91
2022-11-01T05:34:18.619Z,14.89
2022-11-01T05:35:18.618Z,14.87
2022-11-01T05:36:18.624Z,14.87
2022-11-01T05:37:18.597Z,14.89
2022-11-01T05:38:18.735Z,14.92
2022-11-01T05:39:18.787Z,14.91
2022-11-01T05:40:21.725Z,14.92
2022-11-01T05:41:18.675Z,14.92
2022-11-01T05:42:19.046Z,14.89
2022-11-01T05:43:18.732Z,14.97
2022-11-01T05:44:18.726Z,14.98
2022-11-01T05:45:18.601Z,15.01
2022-11-01T05:46:18.711Z,15
2022-11-01T05:47:19.053Z,15.02
2022-11-01T05:48:18.704Z,15.02
2022-11-01T05:49:18.753Z,15.02
2022-11-01T05:50:18.696Z,15.03
2022-11-01T05:51:21.622Z,15.04
2022-11-01T05:52:18.982Z,15.05
2022-11-01T05:53:18.715Z,15.06
2022-11-01T05:54:18.760Z,15.06
2022-11-01T05:55:18.722Z,15.05
2022-11-01T05:56:18.744Z,15.06
2022-11-01T05:57:19.022Z,15.04
2022-11-01T05:58:18.759Z,15.04
2022-11-01T05:59:18.978Z,15.05
2022-11-01T06:00:18.814Z,15.05
2022-11-01T06:01:18.847Z,15.07
2022-11-01T06:02:24.762Z,15.08
2022-11-01T06:03:18.726Z,15.1
2022-11-01T06:04:18.623Z,15.07
2022-11-01T06:05:18.674Z,15.06
2022-11-01T06:06:18.614Z,15.06
2022-11-01T06:07:18.721Z,15.06
2022-11-01T06:08:18.748Z,15.08
2022-11-01T06:09:18.634Z,15.08
2022-11-01T06:10:18.730Z,15.08
2022-11-01T06:11:18.763Z,15.1
2022-11-01T06:12:19.836Z,15.1
2022-11-01T06:13:21.684Z,15.1
2022-11-01T06:14:18.984Z,15.09
2022-11-01T06:15:18.755Z,15.12
2022-11-01T06:16:18.741Z,15.13
2022-11-01T06:17:18.998Z,15.1
2022-11-01T06:18:18.727Z,15.1
2022-11-01T06:19:18.749Z,15.14
2022-11-01T06:20:18.709Z,15.16
2022-11-01T06:21:18.625Z,15.17
2022-11-01T06:22:19.049Z,15.17
2022-11-01T06:23:18.828Z,15.21
2022-11-01T06:24:21.727Z,15.19
2022-11-01T06:25:18.726Z,15.2
2022-11-01T06:26:18.629Z,15.18
2022-11-01T06:27:19.051Z,15.16
2022-11-01T06:28:18.703Z,15.15
2022-11-01T06:29:19.069Z,15.12
2022-11-01T06:30:18.766Z,15.18
2022-11-01T06:31:18.613Z,15.24
2022-11-01T06:32:19.043Z,15.33
2022-11-01T06:33:18.750Z,15.28
2022-11-01T06:34:18.585Z,15.28
2022-11-01T06:35:21.774Z,15.3
2022-11-01T06:36:18.751Z,15.29
2022-11-01T06:37:19.050Z,15.32
2022-11-01T06:38:18.745Z,15.25
2022-11-01T06:39:18.735Z,15.22
2022-11-01T06:40:18.687Z,15.19
2022-11-01T06:41:18.593Z,15.22
2022-11-01T06:42:19.101Z,15.24
2022-11-01T06:43:18.721Z,15.28
2022-11-01T06:44:19.041Z,15.29
2022-11-01T06:45:18.793Z,15.34
2022-11-01T06:46:21.727Z,15.41
2022-11-01T06:47:18.982Z,15.42
2022-11-01T06:48:18.680Z,15.44
2022-11-01T06:49:19.351Z,15.46
2022-11-01T06:50:18.717Z,15.48
2022-11-01T06:51:18.599Z,15.46
2022-11-01T06:52:18.974Z,15.48
2022-11-01T06:53:18.625Z,15.5
2022-11-01T06:54:18.686Z,15.53
2022-11-01T06:55:18.768Z,15.57
2022-11-01T06:56:18.623Z,15.55
2022-11-01T06:57:24.663Z,15.52
2022-11-01T06:58:18.773Z,15.57
2022-11-01T06:59:18.983Z,15.58
2022-11-01T07:00:18.703Z,15.54
2022-11-01T07:01:18.787Z,15.58
2022-11-01T07:02:19.953Z,15.58
2022-11-01T07:03:18.756Z,15.6
2022-11-01T07:04:18.611Z,15.59
2022-11-01T07:05:18.682Z,15.64
2022-11-01T07:06:18.719Z,15.63
2022-11-01T07:07:18.974Z,15.7
2022-11-01T07:08:21.672Z,15.73
2022-11-01T07:09:18.784Z,15.77
2022-11-01T07:10:18.627Z,15.8
2022-11-01T07:11:18.587Z,15.83
2022-11-01T07:12:18.984Z,15.86
2022-11-01T07:13:18.621Z,15.87
2022-11-01T07:14:18.978Z,15.96
2022-11-01T07:15:18.710Z,15.98
2022-11-01T07:16:18.611Z,16.03
2022-11-01T07:17:19.050Z,16.01
2022-11-01T07:18:18.781Z,16
2022-11-01T07:19:21.672Z,15.97
2022-11-01T07:20:18.788Z,15.97
2022-11-01T07:21:18.719Z,15.98
2022-11-01T07:22:18.977Z,16.03
2022-11-01T07:23:18.764Z,16.08
2022-11-01T07:24:18.709Z,16.16
2022-11-01T07:25:18.722Z,16.21
2022-11-01T07:26:18.732Z,16.25
2022-11-01T07:27:20.569Z,16.32
2022-11-01T07:28:18.709Z,16.33
2022-11-01T07:29:19.075Z,16.31
2022-11-01T07:30:21.831Z,16.35
2022-11-01T07:31:20.396Z,16.36
2022-11-01T07:32:19.111Z,16.42
2022-11-01T07:33:18.709Z,16.43
2022-11-01T07:34:18.721Z,16.45
2022-11-01T07:35:18.808Z,16.46
2022-11-01T07:36:18.752Z,16.53
2022-11-01T07:37:19.218Z,16.47
2022-11-01T07:38:19.152Z,16.49
2022-11-01T07:39:18.608Z,16.48
2022-11-01T07:40:18.743Z,16.46
2022-11-01T07:41:21.811Z,16.44
2022-11-01T07:42:18.982Z,16.44
2022-11-01T07:43:18.773Z,16.44
2022-11-01T07:44:19.049Z,16.41
2022-11-01T07:45:18.825Z,16.44
2022-11-01T07:46:18.824Z,16.4
2022-11-01T07:47:18.986Z,16.39
2022-11-01T07:48:18.598Z,16.36
2022-11-01T07:49:18.728Z,16.31
2022-11-01T07:50:18.790Z,16.31
2022-11-01T07:51:18.740Z,16.32
2022-11-01T07:52:22.057Z,16.32
2022-11-01T07:53:18.814Z,16.37
2022-11-01T07:54:18.810Z,16.39
2022-11-01T07:55:18.705Z,16.43
2022-11-01T07:56:18.608Z,16.51
2022-11-01T07:57:19.047Z,16.52
2022-11-01T07:58:18.636Z,16.56
2022-11-01T07:59:19.048Z,16.66
2022-11-01T08:00:18.778Z,16.69
2022-11-01T08:01:18.758Z,16.78
2022-11-01T08:02:19.204Z,16.84
2022-11-01T08:03:21.657Z,16.89
2022-11-01T08:04:18.790Z,16.93
2022-11-01T08:05:18.738Z,17
2022-11-01T08:06:18.850Z,17.08
2022-11-01T08:07:18.973Z,17.11
2022-11-01T08:08:18.804Z,17.14
2022-11-01T08:09:18.707Z,17.19
2022-11-01T08:10:18.642Z,17.22
2022-11-01T08:11:18.764Z,17.28
2022-11-01T08:12:18.982Z,17.31
2022-11-01T08:13:18.783Z,17.34
2022-11-01T08:14:24.664Z,17.35
2022-11-01T08:15:18.712Z,17.31
2022-11-01T08:16:18.654Z,17.35
2022-11-01T08:17:19.056Z,17.25
2022-11-01T08:18:18.710Z,17.31
2022-11-01T08:19:18.742Z,17.35
2022-11-01T08:20:18.626Z,17.39
2022-11-01T08:21:18.909Z,17.36
2022-11-01T08:22:19.040Z,17.31
2022-11-01T08:23:18.755Z,17.23
2022-11-01T08:24:18.675Z,17.23
2022-11-01T08:25:21.756Z,17.18
2022-11-01T08:26:18.832Z,17.22
2022-11-01T08:27:19.042Z,17.25
2022-11-01T08:28:18.709Z,17.18
2022-11-01T08:29:19.128Z,17.18
2022-11-01T08:30:18.756Z,17.29
2022-11-01T08:31:18.687Z,17.45
2022-11-01T08:32:19.052Z,17.44
2022-11-01T08:33:18.796Z,17.48
2022-11-01T08:34:18.720Z,17.49
2022-11-01T08:35:18.631Z,17.6
2022-11-01T08:36:21.746Z,17.76
2022-11-01T08:37:18.973Z,17.82
2022-11-01T08:38:18.805Z,17.81
2022-11-01T08:39:18.707Z,17.78
2022-11-01T08:40:18.737Z,17.79
2022-11-01T08:41:18.599Z,17.84
2022-11-01T08:42:18.975Z,17.85
2022-11-01T08:43:18.635Z,17.87
2022-11-01T08:44:19.053Z,17.89
2022-11-01T08:45:18.684Z,17.91
2022-11-01T08:46:18.629Z,17.94
2022-11-01T08:47:24.693Z,17.95
2022-11-01T08:48:18.785Z,17.96
2022-11-01T08:49:18.743Z,17.92
2022-11-01T08:50:18.726Z,17.89
2022-11-01T08:51:18.700Z,17.89
2022-11-01T08:52:19.048Z,17.86
2022-11-01T08:53:18.737Z,17.8
2022-11-01T08:54:18.639Z,17.78
2022-11-01T08:55:18.612Z,17.69
2022-11-01T08:56:18.613Z,17.64
2022-11-01T08:57:18.975Z,17.57
2022-11-01T08:58:21.654Z,17.5
2022-11-01T08:59:19.031Z,17.49
2022-11-01T09:00:18.800Z,17.5
2022-11-01T09:01:18.963Z,17.49
2022-11-01T09:02:19.113Z,17.49
2022-11-01T09:03:18.794Z,17.5
2022-11-01T09:04:18.737Z,17.53
2022-11-01T09:05:18.723Z,17.56
2022-11-01T09:06:18.686Z,17.6
2022-11-01T09:07:19.150Z,17.66
2022-11-01T09:08:18.761Z,17.7
2022-11-01T09:09:21.654Z,17.79
2022-11-01T09:10:18.703Z,17.86
2022-11-01T09:11:18.614Z,17.89
2022-11-01T09:12:24.265Z,17.93
2022-11-01T09:13:18.785Z,17.99
2022-11-01T09:14:18.975Z,18.06
2022-11-01T09:15:18.735Z,18.09
2022-11-01T09:16:18.700Z,18.16
2022-11-01T09:17:18.994Z,18.18
2022-11-01T09:18:18.714Z,18.12
2022-11-01T09:19:18.616Z,18.06
2022-11-01T09:20:21.663Z,17.96
2022-11-01T09:21:18.783Z,17.82
2022-11-01T09:22:18.992Z,17.75
2022-11-01T09:23:18.784Z,17.7
2022-11-01T09:24:18.741Z,17.65
2022-11-01T09:25:18.709Z,17.58
2022-11-01T09:26:18.626Z,17.52
2022-11-01T09:27:19.101Z,17.49
2022-11-01T09:28:18.709Z,17.47
2022-11-01T09:29:19.065Z,17.51
2022-11-01T09:30:18.698Z,17.64
2022-11-01T09:31:21.992Z,17.67
2022-11-01T09:32:18.977Z,17.66
2022-11-01T09:33:18.724Z,17.68
2022-11-01T09:34:18.679Z,17.73
2022-11-01T09:35:18.814Z,17.72
2022-11-01T09:36:18.788Z,17.65
2022-11-01T09:37:18.972Z,17.59
2022-11-01T09:38:18.622Z,17.54
2022-11-01T09:39:18.743Z,17.47
2022-11-01T09:40:18.699Z,17.5
2022-11-01T09:41:18.698Z,17.56
2022-11-01T09:42:24.680Z,17.63
2022-11-01T09:43:18.791Z,17.59
2022-11-01T09:44:18.981Z,17.56
2022-11-01T09:45:18.733Z,17.53
2022-11-01T09:46:18.655Z,17.52
2022-11-01T09:47:19.049Z,17.48
2022-11-01T09:48:18.621Z,17.45
2022-11-01T09:49:18.629Z,17.47
2022-11-01T09:50:18.609Z,17.48
2022-11-01T09:51:18.701Z,17.56
2022-11-01T09:52:19.062Z,17.66
2022-11-01T09:53:21.626Z,17.78
2022-11-01T09:54:18.721Z,17.84
2022-11-01T09:55:18.739Z,17.85
2022-11-01T09:56:18.710Z,17.73
2022-11-01T09:57:19.060Z,17.64
2022-11-01T09:58:18.782Z,17.6
2022-11-01T09:59:18.983Z,17.63
2022-11-01T10:00:18.766Z,17.71
2022-11-01T10:01:18.831Z,17.81
2022-11-01T10:02:19.144Z,17.88
2022-11-01T10:03:18.702Z,17.8
2022-11-01T10:04:21.636Z,17.7
2022-11-01T10:05:19.191Z,17.67
2022-11-01T10:06:18.623Z,17.66
2022-11-01T10:07:19.141Z,17.68
2022-11-01T10:08:18.723Z,17.7
2022-11-01T10:09:18.632Z,17.71
2022-11-01T10:10:18.626Z,17.77
2022-11-01T10:11:18.588Z,17.71
2022-11-01T10:12:19.062Z,17.76
2022-11-01T10:13:18.822Z,17.83
2022-11-01T10:14:19.087Z,17.86
2022-11-01T10:15:21.633Z,17.91
2022-11-01T10:16:18.690Z,18.01
2022-11-01T10:17:19.052Z,18.03
2022-11-01T10:18:18.657Z,18.1
2022-11-01T10:19:18.625Z,18.08
2022-11-01T10:20:18.623Z,18.12
2022-11-01T10:21:18.743Z,18.21
2022-11-01T10:22:19.159Z,18.35
2022-11-01T10:23:18.707Z,18.47
2022-11-01T10:24:18.615Z,18.38
2022-11-01T10:25:18.814Z,18.33
2022-11-01T10:26:21.755Z,18.26
2022-11-01T10:27:18.981Z,18.08
2022-11-01T10:28:18.780Z,18.02
2022-11-01T10:29:19.074Z,18.03
2022-11-01T10:30:18.842Z,18.02
2022-11-01T10:31:18.801Z,18
2022-11-01T10:32:18.977Z,18
2022-11-01T10:33:18.608Z,18.02
2022-11-01T10:34:18.626Z,18.05
2022-11-01T10:35:18.720Z,18.13
2022-11-01T10:36:18.698Z,18.26
2022-11-01T10:37:24.677Z,18.35
2022-11-01T10:38:26.572Z,18.46
2022-11-01T10:40:57.069Z,18.68
2022-11-01T10:41:56.934Z,18.8
2022-11-01T10:42:57.300Z,18.84
2022-11-01T10:43:57.070Z,18.81
2022-11-01T10:44:57.330Z,18.87
2022-11-01T10:46:00.134Z,18.95
2022-11-01T10:46:57.120Z,18.98
2022-11-01T10:47:57.292Z,19.13
2022-11-01T10:48:57.028Z,19.1
2022-11-01T10:50:07.073Z,19.11
2022-11-01T10:50:57.135Z,19.2
2022-11-01T10:51:57.024Z,19.25
2022-11-01T10:52:57.360Z,19.29
2022-11-01T10:53:57.131Z,19.37
2022-11-01T10:54:57.013Z,19.49
2022-11-01T10:55:57.050Z,19.57
2022-11-01T10:56:59.959Z,19.56
2022-11-01T10:57:57.287Z,19.5
2022-11-01T10:58:57.127Z,19.42
2022-11-01T10:59:57.362Z,19.43
2022-11-01T11:00:57.177Z,19.32
2022-11-01T11:01:57.395Z,19.3
2022-11-01T11:02:57.727Z,19.3
2022-11-01T11:03:57.068Z,19.26
2022-11-01T11:04:57.083Z,19.26
2022-11-01T11:05:56.938Z,19.23
2022-11-01T11:06:56.952Z,19.24
2022-11-01T11:08:03.625Z,19.25
2022-11-01T11:08:57.035Z,19.34
2022-11-01T11:09:57.057Z,19.34
2022-11-01T11:10:57.084Z,19.28
2022-11-01T11:11:57.081Z,19.21
2022-11-01T11:12:57.369Z,19.22
2022-11-01T11:13:57.037Z,19.14
2022-11-01T11:14:57.358Z,19.14
2022-11-01T11:15:57.021Z,19.1
2022-11-01T11:16:56.922Z,19.12
2022-11-01T11:17:57.281Z,19.19
2022-11-01T11:19:00.108Z,19.31
2022-11-01T11:19:56.996Z,19.34
2022-11-01T11:20:57.036Z,19.34
2022-11-01T11:21:57.090Z,19.27
2022-11-01T11:22:57.385Z,19.16
2022-11-01T11:23:57.112Z,19.13
2022-11-01T11:24:56.939Z,19.15
2022-11-01T11:25:56.937Z,19.22
2022-11-01T11:26:56.972Z,19.21
2022-11-01T11:27:57.360Z,19.22
2022-11-01T11:28:57.016Z,19.2
2022-11-01T11:30:00.380Z,19.14
2022-11-01T11:30:57.025Z,19.11
2022-11-01T11:31:56.948Z,19.09
2022-11-01T11:32:57.305Z,19.13
2022-11-01T11:33:56.930Z,19.07
2022-11-01T11:34:57.004Z,19.03
2022-11-01T11:35:56.928Z,18.92
2022-11-01T11:36:56.933Z,18.95
2022-11-01T11:37:57.360Z,18.96
2022-11-01T11:38:57.147Z,18.93
2022-11-01T11:39:57.141Z,18.93
2022-11-01T11:41:00.037Z,18.85
2022-11-01T11:41:57.024Z,18.79
2022-11-01T11:42:57.524Z,18.77
2022-11-01T11:43:57.048Z,18.78
2022-11-01T11:44:57.366Z,18.79
2022-11-01T11:45:57.020Z,18.86
2022-11-01T11:46:57.028Z,18.87
2022-11-01T11:47:57.365Z,18.85
2022-11-01T11:48:57.129Z,18.87
2022-11-01T11:49:57.033Z,18.9
2022-11-01T11:50:56.921Z,18.98
2022-11-01T11:52:00.125Z,18.97
2022-11-01T11:52:57.513Z,18.9
2022-11-01T11:53:57.115Z,18.9
2022-11-01T11:54:57.001Z,19.01
2022-11-01T11:55:56.919Z,18.97
2022-11-01T11:56:56.941Z,18.95
2022-11-01T11:57:57.290Z,18.93
2022-11-01T11:58:56.933Z,18.98
2022-11-01T11:59:57.367Z,18.97
2022-11-01T12:00:57.047Z,18.91
2022-11-01T12:01:57.063Z,18.84
2022-11-01T12:03:03.414Z,18.84
2022-11-01T12:03:57.151Z,18.92
2022-11-01T12:04:57.010Z,18.95
2022-11-01T12:05:56.996Z,19.02
2022-11-01T12:06:57.070Z,19.02
2022-11-01T12:07:57.289Z,19.09
2022-11-01T12:08:57.139Z,19.38
2022-11-01T12:09:56.931Z,19.78
2022-11-01T12:10:57.000Z,20.07
2022-11-01T12:11:57.096Z,20.24
2022-11-01T12:12:57.406Z,20.46
2022-11-01T12:14:00.129Z,20.92
2022-11-01T12:14:57.284Z,21.25
2022-11-01T12:15:57.030Z,21.41
2022-11-01T12:16:57.030Z,21.5
2022-11-01T12:17:57.288Z,21.54
2022-11-01T12:18:56.952Z,21.61
2022-11-01T12:19:56.935Z,21.69
2022-11-01T12:20:57.036Z,21.75
2022-11-01T12:21:57.025Z,21.17
2022-11-01T12:22:57.412Z,20.63
2022-11-01T12:23:57.020Z,20.33
2022-11-01T12:25:00.114Z,20.14
2022-11-01T12:25:57.018Z,19.97
2022-11-01T12:26:57.049Z,19.87
2022-11-01T12:27:57.359Z,19.69
2022-11-01T12:28:57.082Z,19.57
2022-11-01T12:29:57.368Z,19.45
2022-11-01T12:30:56.972Z,19.4
2022-11-01T12:31:57.062Z,19.34
2022-11-01T12:32:57.452Z,19.27
2022-11-01T12:33:57.032Z,19.23
2022-11-01T12:34:56.984Z,19.25
2022-11-01T12:36:00.064Z,19.27
2022-11-01T12:36:57.094Z,19.27
2022-11-01T12:37:57.367Z,19.29
2022-11-01T12:38:57.115Z,19.31
2022-11-01T12:39:57.041Z,19.31
2022-11-01T12:41:00.084Z,19.3
2022-11-01T12:41:56.903Z,19.33
2022-11-01T12:42:57.371Z,19.32
2022-11-01T12:43:56.994Z,19.29
2022-11-01T12:44:57.361Z,19.35
2022-11-01T12:45:57.009Z,19.41
2022-11-01T12:46:59.984Z,19.39
2022-11-01T12:47:57.341Z,19.4
2022-11-01T12:48:57.117Z,19.34
2022-11-01T12:49:57.139Z,19.25
2022-11-01T12:50:57.112Z,19.14
2022-11-01T12:51:56.998Z,19.11
2022-11-01T12:52:57.283Z,19.04
2022-11-01T12:53:57.041Z,19.03
2022-11-01T12:54:57.030Z,18.97
2022-11-01T12:55:56.947Z,18.92
2022-11-01T12:56:57.030Z,18.91